sensor_id;sensor_type;location;lat;lon;timestamp;P1;durP1;ratioP1;P2;durP2;ratioP2
53056;SDS011;38940;50.096;4.012;2023-04-25T00:01:17;6.50;;;4.80;;
53056;SDS011;38940;50.096;4.012;2023-04-25T00:03:43;8.10;;;4.50;;
53056;SDS011;38940;50.096;4.012;2023-04-25T00:06:10;8.07;;;5.00;;
53056;SDS011;38940;50.096;4.012;2023-04-25T00:08:36;7.77;;;4.40;;
53056;SDS011;38940;50.096;4.012;2023-04-25T00:11:02;7.28;;;5.05;;
53056;SDS011;38940;50.096;4.012;2023-04-25T00:13:28;9.02;;;5.32;;
53056;SDS011;38940;50.096;4.012;2023-04-25T00:15:54;8.10;;;5.18;;
53056;SDS011;38940;50.096;4.012;2023-04-25T00:18:21;7.22;;;4.93;;
53056;SDS011;38940;50.096;4.012;2023-04-25T00:20:47;9.38;;;5.15;;
53056;SDS011;38940;50.096;4.012;2023-04-25T00:23:14;7.38;;;4.78;;
53056;SDS011;38940;50.096;4.012;2023-04-25T00:25:46;8.38;;;5.05;;
53056;SDS011;38940;50.096;4.012;2023-04-25T00:28:12;9.63;;;5.03;;
53056;SDS011;38940;50.096;4.012;2023-04-25T00:30:38;8.60;;;5.57;;
53056;SDS011;38940;50.096;4.012;2023-04-25T00:33:05;8.70;;;5.47;;
53056;SDS011;38940;50.096;4.012;2023-04-25T00:35:31;8.35;;;5.38;;
53056;SDS011;38940;50.096;4.012;2023-04-25T00:37:57;6.90;;;5.10;;
53056;SDS011;38940;50.096;4.012;2023-04-25T00:40:23;10.65;;;5.60;;
53056;SDS011;38940;50.096;4.012;2023-04-25T00:42:50;10.85;;;5.75;;
53056;SDS011;38940;50.096;4.012;2023-04-25T00:45:17;8.38;;;5.28;;
53056;SDS011;38940;50.096;4.012;2023-04-25T00:47:43;7.40;;;5.20;;
53056;SDS011;38940;50.096;4.012;2023-04-25T00:50:10;9.30;;;5.25;;
53056;SDS011;38940;50.096;4.012;2023-04-25T00:52:37;10.05;;;5.18;;
53056;SDS011;38940;50.096;4.012;2023-04-25T00:55:04;8.60;;;5.53;;
53056;SDS011;38940;50.096;4.012;2023-04-25T00:57:30;8.02;;;5.60;;
53056;SDS011;38940;50.096;4.012;2023-04-25T00:59:56;12.88;;;5.60;;
53056;SDS011;38940;50.096;4.012;2023-04-25T01:02:23;10.83;;;5.47;;
53056;SDS011;38940;50.096;4.012;2023-04-25T01:04:50;8.57;;;4.95;;
53056;SDS011;38940;50.096;4.012;2023-04-25T01:07:16;7.72;;;5.57;;
53056;SDS011;38940;50.096;4.012;2023-04-25T01:09:42;8.32;;;5.60;;
53056;SDS011;38940;50.096;4.012;2023-04-25T01:12:08;8.57;;;5.60;;
53056;SDS011;38940;50.096;4.012;2023-04-25T01:14:34;9.20;;;5.20;;
53056;SDS011;38940;50.096;4.012;2023-04-25T01:17:00;8.27;;;5.55;;
53056;SDS011;38940;50.096;4.012;2023-04-25T01:19:27;8.52;;;5.40;;
53056;SDS011;38940;50.096;4.012;2023-04-25T01:21:53;10.63;;;5.45;;
53056;SDS011;38940;50.096;4.012;2023-04-25T01:24:19;9.75;;;6.05;;
53056;SDS011;38940;50.096;4.012;2023-04-25T01:26:45;8.30;;;5.57;;
53056;SDS011;38940;50.096;4.012;2023-04-25T01:29:15;9.75;;;5.47;;
53056;SDS011;38940;50.096;4.012;2023-04-25T01:31:41;9.87;;;5.23;;
53056;SDS011;38940;50.096;4.012;2023-04-25T01:34:07;7.93;;;5.15;;
53056;SDS011;38940;50.096;4.012;2023-04-25T01:36:33;9.07;;;5.37;;
53056;SDS011;38940;50.096;4.012;2023-04-25T01:39:00;9.13;;;5.18;;
53056;SDS011;38940;50.096;4.012;2023-04-25T01:41:26;7.43;;;5.00;;
53056;SDS011;38940;50.096;4.012;2023-04-25T01:43:52;8.40;;;5.05;;
53056;SDS011;38940;50.096;4.012;2023-04-25T01:46:18;7.53;;;5.05;;
53056;SDS011;38940;50.096;4.012;2023-04-25T01:48:44;8.10;;;5.00;;
53056;SDS011;38940;50.096;4.012;2023-04-25T01:51:11;7.40;;;5.00;;
53056;SDS011;38940;50.096;4.012;2023-04-25T01:53:37;7.85;;;5.13;;
53056;SDS011;38940;50.096;4.012;2023-04-25T01:56:03;8.02;;;4.55;;
53056;SDS011;38940;50.096;4.012;2023-04-25T01:58:30;8.27;;;5.32;;
53056;SDS011;38940;50.096;4.012;2023-04-25T02:00:56;8.10;;;5.50;;
53056;SDS011;38940;50.096;4.012;2023-04-25T02:03:22;8.60;;;5.65;;
53056;SDS011;38940;50.096;4.012;2023-04-25T02:05:48;10.13;;;5.88;;
53056;SDS011;38940;50.096;4.012;2023-04-25T02:08:14;9.60;;;6.10;;
53056;SDS011;38940;50.096;4.012;2023-04-25T02:10:40;8.43;;;5.90;;
53056;SDS011;38940;50.096;4.012;2023-04-25T02:13:06;9.17;;;6.27;;
53056;SDS011;38940;50.096;4.012;2023-04-25T02:15:32;10.40;;;5.90;;
53056;SDS011;38940;50.096;4.012;2023-04-25T02:17:58;11.90;;;6.50;;
53056;SDS011;38940;50.096;4.012;2023-04-25T02:20:25;9.85;;;6.40;;
53056;SDS011;38940;50.096;4.012;2023-04-25T02:22:51;8.65;;;5.97;;
53056;SDS011;38940;50.096;4.012;2023-04-25T02:25:18;9.90;;;6.70;;
53056;SDS011;38940;50.096;4.012;2023-04-25T02:27:45;11.13;;;6.57;;
53056;SDS011;38940;50.096;4.012;2023-04-25T02:30:11;8.90;;;6.30;;
53056;SDS011;38940;50.096;4.012;2023-04-25T02:32:37;13.00;;;7.40;;
53056;SDS011;38940;50.096;4.012;2023-04-25T02:35:04;12.25;;;7.00;;
53056;SDS011;38940;50.096;4.012;2023-04-25T02:37:30;11.27;;;6.70;;
53056;SDS011;38940;50.096;4.012;2023-04-25T02:39:56;12.53;;;6.70;;
53056;SDS011;38940;50.096;4.012;2023-04-25T02:42:22;14.10;;;7.30;;
53056;SDS011;38940;50.096;4.012;2023-04-25T02:44:48;12.45;;;7.20;;
53056;SDS011;38940;50.096;4.012;2023-04-25T02:47:14;11.43;;;7.40;;
53056;SDS011;38940;50.096;4.012;2023-04-25T02:49:40;13.27;;;7.63;;
53056;SDS011;38940;50.096;4.012;2023-04-25T02:52:06;11.27;;;7.43;;
53056;SDS011;38940;50.096;4.012;2023-04-25T02:54:33;14.18;;;7.90;;
53056;SDS011;38940;50.096;4.012;2023-04-25T02:56:58;12.95;;;7.70;;
53056;SDS011;38940;50.096;4.012;2023-04-25T02:59:25;13.60;;;7.50;;
53056;SDS011;38940;50.096;4.012;2023-04-25T03:01:51;12.43;;;7.50;;
53056;SDS011;38940;50.096;4.012;2023-04-25T03:04:17;12.52;;;7.20;;
53056;SDS011;38940;50.096;4.012;2023-04-25T03:06:44;13.63;;;7.73;;
53056;SDS011;38940;50.096;4.012;2023-04-25T03:09:10;17.15;;;7.35;;
53056;SDS011;38940;50.096;4.012;2023-04-25T03:11:37;16.97;;;7.20;;
53056;SDS011;38940;50.096;4.012;2023-04-25T03:14:03;12.63;;;7.47;;
53056;SDS011;38940;50.096;4.012;2023-04-25T03:16:29;11.60;;;6.40;;
53056;SDS011;38940;50.096;4.012;2023-04-25T03:18:55;11.67;;;6.70;;
53056;SDS011;38940;50.096;4.012;2023-04-25T03:21:21;16.37;;;6.87;;
53056;SDS011;38940;50.096;4.012;2023-04-25T03:23:47;15.48;;;7.30;;
53056;SDS011;38940;50.096;4.012;2023-04-25T03:26:13;12.45;;;6.70;;
53056;SDS011;38940;50.096;4.012;2023-04-25T03:28:40;13.00;;;6.60;;
53056;SDS011;38940;50.096;4.012;2023-04-25T03:31:06;13.48;;;5.28;;
53056;SDS011;38940;50.096;4.012;2023-04-25T03:33:32;11.40;;;4.57;;
53056;SDS011;38940;50.096;4.012;2023-04-25T03:35:58;10.18;;;4.32;;
53056;SDS011;38940;50.096;4.012;2023-04-25T03:38:24;12.73;;;3.95;;
53056;SDS011;38940;50.096;4.012;2023-04-25T03:40:51;18.02;;;4.70;;
53056;SDS011;38940;50.096;4.012;2023-04-25T03:43:17;13.48;;;4.88;;
53056;SDS011;38940;50.096;4.012;2023-04-25T03:45:43;12.63;;;4.82;;
53056;SDS011;38940;50.096;4.012;2023-04-25T03:48:09;16.93;;;4.27;;
53056;SDS011;38940;50.096;4.012;2023-04-25T03:50:35;11.32;;;3.53;;
53056;SDS011;38940;50.096;4.012;2023-04-25T03:53:01;13.57;;;3.40;;
53056;SDS011;38940;50.096;4.012;2023-04-25T03:55:27;10.48;;;3.05;;
53056;SDS011;38940;50.096;4.012;2023-04-25T03:57:53;15.48;;;3.40;;
53056;SDS011;38940;50.096;4.012;2023-04-25T04:00:19;14.95;;;3.10;;
53056;SDS011;38940;50.096;4.012;2023-04-25T04:02:45;12.05;;;3.13;;
53056;SDS011;38940;50.096;4.012;2023-04-25T04:05:11;12.83;;;3.07;;
53056;SDS011;38940;50.096;4.012;2023-04-25T04:07:37;11.30;;;3.03;;
53056;SDS011;38940;50.096;4.012;2023-04-25T04:10:14;12.30;;;2.80;;
53056;SDS011;38940;50.096;4.012;2023-04-25T04:12:40;11.48;;;2.88;;
53056;SDS011;38940;50.096;4.012;2023-04-25T04:15:06;13.15;;;2.65;;
53056;SDS011;38940;50.096;4.012;2023-04-25T04:17:33;10.77;;;2.80;;
53056;SDS011;38940;50.096;4.012;2023-04-25T04:19:59;15.88;;;2.90;;
53056;SDS011;38940;50.096;4.012;2023-04-25T04:22:25;11.98;;;2.30;;
53056;SDS011;38940;50.096;4.012;2023-04-25T04:24:51;14.88;;;2.72;;
53056;SDS011;38940;50.096;4.012;2023-04-25T04:27:18;11.60;;;2.88;;
53056;SDS011;38940;50.096;4.012;2023-04-25T04:29:47;9.80;;;2.50;;
53056;SDS011;38940;50.096;4.012;2023-04-25T04:32:14;12.55;;;2.50;;
53056;SDS011;38940;50.096;4.012;2023-04-25T04:34:40;10.98;;;2.58;;
53056;SDS011;38940;50.096;4.012;2023-04-25T04:37:06;9.93;;;2.20;;
53056;SDS011;38940;50.096;4.012;2023-04-25T04:39:33;13.07;;;2.60;;
53056;SDS011;38940;50.096;4.012;2023-04-25T04:41:59;13.25;;;2.33;;
53056;SDS011;38940;50.096;4.012;2023-04-25T04:44:27;8.73;;;2.20;;
53056;SDS011;38940;50.096;4.012;2023-04-25T04:46:53;9.88;;;2.28;;
53056;SDS011;38940;50.096;4.012;2023-04-25T04:49:20;12.27;;;2.10;;
53056;SDS011;38940;50.096;4.012;2023-04-25T04:51:46;9.70;;;2.22;;
53056;SDS011;38940;50.096;4.012;2023-04-25T04:54:14;8.40;;;1.98;;
53056;SDS011;38940;50.096;4.012;2023-04-25T04:56:40;9.73;;;2.05;;
53056;SDS011;38940;50.096;4.012;2023-04-25T04:59:06;7.72;;;1.90;;
53056;SDS011;38940;50.096;4.012;2023-04-25T05:01:33;12.85;;;2.72;;
53056;SDS011;38940;50.096;4.012;2023-04-25T05:04:00;9.50;;;1.92;;
53056;SDS011;38940;50.096;4.012;2023-04-25T05:06:28;9.57;;;2.40;;
53056;SDS011;38940;50.096;4.012;2023-04-25T05:08:54;9.77;;;2.10;;
53056;SDS011;38940;50.096;4.012;2023-04-25T05:11:21;11.65;;;2.20;;
53056;SDS011;38940;50.096;4.012;2023-04-25T05:13:47;10.48;;;2.13;;
53056;SDS011;38940;50.096;4.012;2023-04-25T05:16:13;5.77;;;1.90;;
53056;SDS011;38940;50.096;4.012;2023-04-25T05:18:39;12.23;;;2.50;;
53056;SDS011;38940;50.096;4.012;2023-04-25T05:21:06;7.82;;;2.20;;
53056;SDS011;38940;50.096;4.012;2023-04-25T05:23:32;8.57;;;2.00;;
53056;SDS011;38940;50.096;4.012;2023-04-25T05:25:58;8.25;;;1.73;;
53056;SDS011;38940;50.096;4.012;2023-04-25T05:28:24;10.20;;;1.85;;
53056;SDS011;38940;50.096;4.012;2023-04-25T05:30:51;9.68;;;2.13;;
53056;SDS011;38940;50.096;4.012;2023-04-25T05:33:17;8.87;;;1.90;;
53056;SDS011;38940;50.096;4.012;2023-04-25T05:35:43;8.10;;;1.92;;
53056;SDS011;38940;50.096;4.012;2023-04-25T05:38:09;8.57;;;1.90;;
53056;SDS011;38940;50.096;4.012;2023-04-25T05:40:35;8.70;;;1.63;;
53056;SDS011;38940;50.096;4.012;2023-04-25T05:43:01;9.10;;;1.85;;
53056;SDS011;38940;50.096;4.012;2023-04-25T05:45:27;6.20;;;1.90;;
53056;SDS011;38940;50.096;4.012;2023-04-25T05:47:53;7.75;;;1.95;;
53056;SDS011;38940;50.096;4.012;2023-04-25T05:50:19;8.75;;;1.95;;
53056;SDS011;38940;50.096;4.012;2023-04-25T05:52:46;9.45;;;2.40;;
53056;SDS011;38940;50.096;4.012;2023-04-25T05:55:12;7.70;;;2.30;;
53056;SDS011;38940;50.096;4.012;2023-04-25T05:57:38;6.50;;;2.00;;
53056;SDS011;38940;50.096;4.012;2023-04-25T06:00:08;8.77;;;1.88;;
53056;SDS011;38940;50.096;4.012;2023-04-25T06:02:34;5.72;;;1.83;;
53056;SDS011;38940;50.096;4.012;2023-04-25T06:05:01;8.23;;;1.75;;
53056;SDS011;38940;50.096;4.012;2023-04-25T06:07:28;11.75;;;2.17;;
53056;SDS011;38940;50.096;4.012;2023-04-25T06:09:57;7.03;;;1.95;;
53056;SDS011;38940;50.096;4.012;2023-04-25T06:12:25;12.35;;;2.10;;
53056;SDS011;38940;50.096;4.012;2023-04-25T06:14:51;9.68;;;1.85;;
53056;SDS011;38940;50.096;4.012;2023-04-25T06:17:17;8.70;;;2.03;;
53056;SDS011;38940;50.096;4.012;2023-04-25T06:19:43;9.07;;;2.13;;
53056;SDS011;38940;50.096;4.012;2023-04-25T06:22:09;8.97;;;2.30;;
53056;SDS011;38940;50.096;4.012;2023-04-25T06:24:35;10.55;;;2.00;;
53056;SDS011;38940;50.096;4.012;2023-04-25T06:27:01;9.07;;;2.13;;
53056;SDS011;38940;50.096;4.012;2023-04-25T06:29:27;6.68;;;1.63;;
53056;SDS011;38940;50.096;4.012;2023-04-25T06:31:53;9.50;;;2.10;;
53056;SDS011;38940;50.096;4.012;2023-04-25T06:34:19;9.43;;;2.13;;
53056;SDS011;38940;50.096;4.012;2023-04-25T06:36:45;9.40;;;2.03;;
53056;SDS011;38940;50.096;4.012;2023-04-25T06:39:11;10.18;;;2.30;;
53056;SDS011;38940;50.096;4.012;2023-04-25T06:41:37;11.73;;;2.05;;
53056;SDS011;38940;50.096;4.012;2023-04-25T06:44:03;8.52;;;2.22;;
53056;SDS011;38940;50.096;4.012;2023-04-25T06:46:29;8.53;;;2.30;;
53056;SDS011;38940;50.096;4.012;2023-04-25T06:48:55;9.27;;;2.38;;
53056;SDS011;38940;50.096;4.012;2023-04-25T06:51:21;8.98;;;2.40;;
53056;SDS011;38940;50.096;4.012;2023-04-25T06:53:49;9.48;;;2.72;;
53056;SDS011;38940;50.096;4.012;2023-04-25T06:56:15;11.95;;;2.50;;
53056;SDS011;38940;50.096;4.012;2023-04-25T06:58:41;9.43;;;2.30;;
53056;SDS011;38940;50.096;4.012;2023-04-25T07:01:07;10.53;;;2.63;;
53056;SDS011;38940;50.096;4.012;2023-04-25T07:03:33;14.60;;;2.80;;
53056;SDS011;38940;50.096;4.012;2023-04-25T07:05:59;11.87;;;2.70;;
53056;SDS011;38940;50.096;4.012;2023-04-25T07:08:25;11.27;;;2.50;;
53056;SDS011;38940;50.096;4.012;2023-04-25T07:10:51;15.60;;;2.83;;
53056;SDS011;38940;50.096;4.012;2023-04-25T07:13:17;14.68;;;3.10;;
53056;SDS011;38940;50.096;4.012;2023-04-25T07:15:43;13.90;;;2.72;;
53056;SDS011;38940;50.096;4.012;2023-04-25T07:18:09;13.30;;;2.97;;
53056;SDS011;38940;50.096;4.012;2023-04-25T07:20:36;13.95;;;3.00;;
53056;SDS011;38940;50.096;4.012;2023-04-25T07:23:02;15.57;;;3.22;;
53056;SDS011;38940;50.096;4.012;2023-04-25T07:25:28;14.57;;;2.83;;
53056;SDS011;38940;50.096;4.012;2023-04-25T07:27:54;10.35;;;2.92;;
53056;SDS011;38940;50.096;4.012;2023-04-25T07:30:20;13.73;;;2.65;;
53056;SDS011;38940;50.096;4.012;2023-04-25T07:32:46;10.53;;;2.60;;
53056;SDS011;38940;50.096;4.012;2023-04-25T07:35:12;14.45;;;3.00;;
53056;SDS011;38940;50.096;4.012;2023-04-25T07:37:38;11.07;;;3.30;;
53056;SDS011;38940;50.096;4.012;2023-04-25T07:40:04;16.90;;;3.90;;
53056;SDS011;38940;50.096;4.012;2023-04-25T07:42:30;14.52;;;3.33;;
53056;SDS011;38940;50.096;4.012;2023-04-25T07:44:56;14.45;;;3.03;;
53056;SDS011;38940;50.096;4.012;2023-04-25T07:47:22;11.60;;;3.37;;
53056;SDS011;38940;50.096;4.012;2023-04-25T07:49:49;13.67;;;3.07;;
53056;SDS011;38940;50.096;4.012;2023-04-25T07:52:14;12.98;;;2.75;;
53056;SDS011;38940;50.096;4.012;2023-04-25T07:54:40;9.65;;;2.60;;
53056;SDS011;38940;50.096;4.012;2023-04-25T07:57:06;15.02;;;2.70;;
53056;SDS011;38940;50.096;4.012;2023-04-25T07:59:32;13.27;;;2.80;;
53056;SDS011;38940;50.096;4.012;2023-04-25T08:01:59;17.77;;;3.25;;
53056;SDS011;38940;50.096;4.012;2023-04-25T08:04:25;11.60;;;2.20;;
53056;SDS011;38940;50.096;4.012;2023-04-25T08:06:52;10.30;;;2.40;;
53056;SDS011;38940;50.096;4.012;2023-04-25T08:09:19;13.73;;;2.25;;
53056;SDS011;38940;50.096;4.012;2023-04-25T08:11:45;14.23;;;2.60;;
53056;SDS011;38940;50.096;4.012;2023-04-25T08:14:12;12.75;;;3.10;;
53056;SDS011;38940;50.096;4.012;2023-04-25T08:16:38;13.55;;;3.33;;
53056;SDS011;38940;50.096;4.012;2023-04-25T08:19:04;13.77;;;3.45;;
53056;SDS011;38940;50.096;4.012;2023-04-25T08:21:30;19.48;;;5.28;;
53056;SDS011;38940;50.096;4.012;2023-04-25T08:23:56;16.75;;;3.97;;
53056;SDS011;38940;50.096;4.012;2023-04-25T08:26:23;16.93;;;3.83;;
53056;SDS011;38940;50.096;4.012;2023-04-25T08:28:49;17.52;;;4.32;;
53056;SDS011;38940;50.096;4.012;2023-04-25T08:31:15;16.17;;;4.22;;
53056;SDS011;38940;50.096;4.012;2023-04-25T08:33:42;16.85;;;3.88;;
53056;SDS011;38940;50.096;4.012;2023-04-25T08:36:08;16.85;;;3.97;;
53056;SDS011;38940;50.096;4.012;2023-04-25T08:38:34;22.10;;;4.40;;
53056;SDS011;38940;50.096;4.012;2023-04-25T08:41:01;15.15;;;3.38;;
53056;SDS011;38940;50.096;4.012;2023-04-25T08:43:27;18.98;;;3.80;;
53056;SDS011;38940;50.096;4.012;2023-04-25T08:45:54;11.02;;;3.58;;
53056;SDS011;38940;50.096;4.012;2023-04-25T08:48:24;16.30;;;3.95;;
53056;SDS011;38940;50.096;4.012;2023-04-25T08:50:53;16.52;;;3.67;;
53056;SDS011;38940;50.096;4.012;2023-04-25T08:53:21;18.42;;;4.32;;
53056;SDS011;38940;50.096;4.012;2023-04-25T08:55:47;15.15;;;3.88;;
53056;SDS011;38940;50.096;4.012;2023-04-25T08:58:14;16.95;;;3.75;;
53056;SDS011;38940;50.096;4.012;2023-04-25T09:00:40;15.82;;;3.25;;
53056;SDS011;38940;50.096;4.012;2023-04-25T09:03:06;15.00;;;2.88;;
53056;SDS011;38940;50.096;4.012;2023-04-25T09:05:33;14.63;;;2.78;;
53056;SDS011;38940;50.096;4.012;2023-04-25T09:08:00;13.95;;;2.60;;
53056;SDS011;38940;50.096;4.012;2023-04-25T09:10:27;13.73;;;2.47;;
53056;SDS011;38940;50.096;4.012;2023-04-25T09:15:29;14.68;;;3.03;;
53056;SDS011;38940;50.096;4.012;2023-04-25T09:17:59;12.90;;;2.50;;
53056;SDS011;38940;50.096;4.012;2023-04-25T09:20:25;12.73;;;2.42;;
53056;SDS011;38940;50.096;4.012;2023-04-25T09:23:03;13.25;;;2.22;;
53056;SDS011;38940;50.096;4.012;2023-04-25T09:25:33;11.98;;;2.28;;
53056;SDS011;38940;50.096;4.012;2023-04-25T09:28:00;12.82;;;2.33;;
53056;SDS011;38940;50.096;4.012;2023-04-25T09:30:29;13.43;;;2.20;;
53056;SDS011;38940;50.096;4.012;2023-04-25T09:33:09;11.63;;;2.10;;
53056;SDS011;38940;50.096;4.012;2023-04-25T09:35:38;12.02;;;2.28;;
53056;SDS011;38940;50.096;4.012;2023-04-25T09:38:14;12.13;;;2.28;;
53056;SDS011;38940;50.096;4.012;2023-04-25T09:40:44;13.05;;;2.13;;
53056;SDS011;38940;50.096;4.012;2023-04-25T09:45:43;11.52;;;2.60;;
53056;SDS011;38940;50.096;4.012;2023-04-25T09:48:10;15.00;;;2.78;;
53056;SDS011;38940;50.096;4.012;2023-04-25T09:50:36;15.82;;;2.50;;
53056;SDS011;38940;50.096;4.012;2023-04-25T09:53:03;18.80;;;2.65;;
53056;SDS011;38940;50.096;4.012;2023-04-25T09:55:32;12.82;;;2.22;;
53056;SDS011;38940;50.096;4.012;2023-04-25T09:58:01;14.57;;;2.55;;
53056;SDS011;38940;50.096;4.012;2023-04-25T10:00:30;12.43;;;2.43;;
53056;SDS011;38940;50.096;4.012;2023-04-25T10:02:56;13.20;;;2.60;;
53056;SDS011;38940;50.096;4.012;2023-04-25T10:05:23;9.48;;;2.38;;
53056;SDS011;38940;50.096;4.012;2023-04-25T10:07:49;16.63;;;2.55;;
53056;SDS011;38940;50.096;4.012;2023-04-25T10:10:16;6.05;;;1.98;;
53056;SDS011;38940;50.096;4.012;2023-04-25T10:12:43;9.63;;;2.75;;
53056;SDS011;38940;50.096;4.012;2023-04-25T10:15:10;11.73;;;3.10;;
53056;SDS011;38940;50.096;4.012;2023-04-25T10:17:36;16.02;;;3.47;;
53056;SDS011;38940;50.096;4.012;2023-04-25T10:20:02;12.18;;;3.40;;
53056;SDS011;38940;50.096;4.012;2023-04-25T10:22:33;9.73;;;3.30;;
53056;SDS011;38940;50.096;4.012;2023-04-25T10:25:00;13.80;;;4.05;;
53056;SDS011;38940;50.096;4.012;2023-04-25T10:27:29;10.77;;;3.43;;
53056;SDS011;38940;50.096;4.012;2023-04-25T10:30:08;12.27;;;3.42;;
53056;SDS011;38940;50.096;4.012;2023-04-25T10:32:36;12.57;;;3.38;;
53056;SDS011;38940;50.096;4.012;2023-04-25T10:37:37;15.52;;;3.53;;
53056;SDS011;38940;50.096;4.012;2023-04-25T10:40:09;14.88;;;3.92;;
53056;SDS011;38940;50.096;4.012;2023-04-25T10:42:36;14.48;;;3.65;;
53056;SDS011;38940;50.096;4.012;2023-04-25T10:45:04;17.60;;;3.83;;
53056;SDS011;38940;50.096;4.012;2023-04-25T10:47:43;13.32;;;3.60;;
53056;SDS011;38940;50.096;4.012;2023-04-25T10:50:10;12.15;;;2.97;;
53056;SDS011;38940;50.096;4.012;2023-04-25T10:52:36;11.40;;;3.17;;
53056;SDS011;38940;50.096;4.012;2023-04-25T10:55:05;10.05;;;3.05;;
53056;SDS011;38940;50.096;4.012;2023-04-25T11:00:11;10.07;;;2.90;;
53056;SDS011;38940;50.096;4.012;2023-04-25T11:02:47;13.05;;;2.67;;
53056;SDS011;38940;50.096;4.012;2023-04-25T11:05:35;13.77;;;3.40;;
53056;SDS011;38940;50.096;4.012;2023-04-25T11:08:00;12.07;;;3.00;;
53056;SDS011;38940;50.096;4.012;2023-04-25T11:10:29;10.95;;;3.08;;
53056;SDS011;38940;50.096;4.012;2023-04-25T11:12:55;11.63;;;3.15;;
53056;SDS011;38940;50.096;4.012;2023-04-25T11:15:21;14.40;;;3.13;;
53056;SDS011;38940;50.096;4.012;2023-04-25T11:17:47;12.82;;;2.92;;
53056;SDS011;38940;50.096;4.012;2023-04-25T11:20:13;9.82;;;2.60;;
53056;SDS011;38940;50.096;4.012;2023-04-25T11:22:40;13.25;;;2.88;;
53056;SDS011;38940;50.096;4.012;2023-04-25T11:25:07;10.32;;;2.67;;
53056;SDS011;38940;50.096;4.012;2023-04-25T11:27:33;14.82;;;2.95;;
53056;SDS011;38940;50.096;4.012;2023-04-25T11:30:09;11.80;;;2.70;;
53056;SDS011;38940;50.096;4.012;2023-04-25T11:32:35;12.07;;;2.50;;
53056;SDS011;38940;50.096;4.012;2023-04-25T11:35:01;16.58;;;3.08;;
53056;SDS011;38940;50.096;4.012;2023-04-25T11:37:28;12.13;;;2.75;;
53056;SDS011;38940;50.096;4.012;2023-04-25T11:39:54;8.18;;;2.45;;
53056;SDS011;38940;50.096;4.012;2023-04-25T11:42:20;9.95;;;3.00;;
53056;SDS011;38940;50.096;4.012;2023-04-25T11:44:46;9.10;;;2.85;;
53056;SDS011;38940;50.096;4.012;2023-04-25T11:47:12;10.60;;;2.83;;
53056;SDS011;38940;50.096;4.012;2023-04-25T11:49:38;11.07;;;2.67;;
53056;SDS011;38940;50.096;4.012;2023-04-25T11:52:05;13.45;;;2.83;;
53056;SDS011;38940;50.096;4.012;2023-04-25T11:54:34;12.05;;;3.25;;
53056;SDS011;38940;50.096;4.012;2023-04-25T11:57:00;9.57;;;3.03;;
53056;SDS011;38940;50.096;4.012;2023-04-25T11:59:26;8.10;;;2.67;;
53056;SDS011;38940;50.096;4.012;2023-04-25T12:01:52;7.47;;;2.90;;
53056;SDS011;38940;50.096;4.012;2023-04-25T12:04:22;8.43;;;2.90;;
53056;SDS011;38940;50.096;4.012;2023-04-25T12:06:49;9.88;;;2.90;;
53056;SDS011;38940;50.096;4.012;2023-04-25T12:09:16;9.25;;;3.05;;
53056;SDS011;38940;50.096;4.012;2023-04-25T12:11:47;12.60;;;3.28;;
53056;SDS011;38940;50.096;4.012;2023-04-25T12:14:20;13.07;;;3.65;;
53056;SDS011;38940;50.096;4.012;2023-04-25T12:16:48;12.48;;;3.58;;
53056;SDS011;38940;50.096;4.012;2023-04-25T12:19:19;11.45;;;2.95;;
53056;SDS011;38940;50.096;4.012;2023-04-25T12:21:45;11.60;;;2.80;;
53056;SDS011;38940;50.096;4.012;2023-04-25T12:24:12;9.27;;;3.03;;
53056;SDS011;38940;50.096;4.012;2023-04-25T12:26:46;12.27;;;3.08;;
53056;SDS011;38940;50.096;4.012;2023-04-25T12:29:15;13.27;;;2.80;;
53056;SDS011;38940;50.096;4.012;2023-04-25T12:31:41;8.25;;;3.03;;
53056;SDS011;38940;50.096;4.012;2023-04-25T12:34:07;12.10;;;3.40;;
53056;SDS011;38940;50.096;4.012;2023-04-25T12:36:33;14.00;;;3.13;;
53056;SDS011;38940;50.096;4.012;2023-04-25T12:39:00;11.93;;;3.17;;
53056;SDS011;38940;50.096;4.012;2023-04-25T12:41:29;10.63;;;3.40;;
53056;SDS011;38940;50.096;4.012;2023-04-25T12:43:55;9.00;;;3.15;;
53056;SDS011;38940;50.096;4.012;2023-04-25T12:46:21;8.40;;;2.50;;
53056;SDS011;38940;50.096;4.012;2023-04-25T12:48:48;8.10;;;2.10;;
53056;SDS011;38940;50.096;4.012;2023-04-25T12:51:14;8.63;;;2.25;;
53056;SDS011;38940;50.096;4.012;2023-04-25T12:53:40;8.43;;;2.15;;
53056;SDS011;38940;50.096;4.012;2023-04-25T12:56:09;13.10;;;2.60;;
53056;SDS011;38940;50.096;4.012;2023-04-25T12:58:36;10.70;;;2.70;;
53056;SDS011;38940;50.096;4.012;2023-04-25T13:01:02;9.18;;;3.03;;
53056;SDS011;38940;50.096;4.012;2023-04-25T13:03:28;11.03;;;2.20;;
53056;SDS011;38940;50.096;4.012;2023-04-25T13:05:54;7.60;;;2.60;;
53056;SDS011;38940;50.096;4.012;2023-04-25T13:08:20;9.93;;;2.10;;
53056;SDS011;38940;50.096;4.012;2023-04-25T13:10:49;4.95;;;1.60;;
53056;SDS011;38940;50.096;4.012;2023-04-25T13:13:15;6.63;;;1.83;;
53056;SDS011;38940;50.096;4.012;2023-04-25T13:15:41;9.90;;;2.70;;
53056;SDS011;38940;50.096;4.012;2023-04-25T13:18:08;7.10;;;2.43;;
53056;SDS011;38940;50.096;4.012;2023-04-25T13:20:34;8.80;;;2.83;;
53056;SDS011;38940;50.096;4.012;2023-04-25T13:23:00;9.90;;;2.75;;
53056;SDS011;38940;50.096;4.012;2023-04-25T13:25:26;13.18;;;3.05;;
53056;SDS011;38940;50.096;4.012;2023-04-25T13:27:52;11.15;;;2.88;;
53056;SDS011;38940;50.096;4.012;2023-04-25T13:30:18;13.60;;;2.70;;
53056;SDS011;38940;50.096;4.012;2023-04-25T13:32:44;12.18;;;2.50;;
53056;SDS011;38940;50.096;4.012;2023-04-25T13:35:11;10.48;;;2.67;;
53056;SDS011;38940;50.096;4.012;2023-04-25T13:37:38;10.67;;;2.87;;
53056;SDS011;38940;50.096;4.012;2023-04-25T13:40:05;9.98;;;2.67;;
53056;SDS011;38940;50.096;4.012;2023-04-25T13:42:36;9.40;;;2.78;;
53056;SDS011;38940;50.096;4.012;2023-04-25T13:45:02;10.53;;;2.70;;
53056;SDS011;38940;50.096;4.012;2023-04-25T13:47:28;10.48;;;2.75;;
53056;SDS011;38940;50.096;4.012;2023-04-25T13:49:55;13.15;;;3.42;;
53056;SDS011;38940;50.096;4.012;2023-04-25T13:52:21;10.88;;;3.38;;
53056;SDS011;38940;50.096;4.012;2023-04-25T13:54:49;14.25;;;3.75;;
53056;SDS011;38940;50.096;4.012;2023-04-25T13:57:15;10.18;;;3.45;;
53056;SDS011;38940;50.096;4.012;2023-04-25T13:59:41;11.75;;;3.17;;
53056;SDS011;38940;50.096;4.012;2023-04-25T14:02:08;10.88;;;3.00;;
53056;SDS011;38940;50.096;4.012;2023-04-25T14:04:34;10.45;;;3.15;;
53056;SDS011;38940;50.096;4.012;2023-04-25T14:07:00;10.68;;;2.90;;
53056;SDS011;38940;50.096;4.012;2023-04-25T14:09:27;11.23;;;2.40;;
53056;SDS011;38940;50.096;4.012;2023-04-25T14:11:53;6.90;;;2.27;;
53056;SDS011;38940;50.096;4.012;2023-04-25T14:14:19;8.70;;;2.37;;
53056;SDS011;38940;50.096;4.012;2023-04-25T14:16:46;9.52;;;2.70;;
53056;SDS011;38940;50.096;4.012;2023-04-25T14:19:17;10.52;;;2.90;;
53056;SDS011;38940;50.096;4.012;2023-04-25T14:21:43;13.38;;;2.70;;
53056;SDS011;38940;50.096;4.012;2023-04-25T14:24:09;9.35;;;3.15;;
53056;SDS011;38940;50.096;4.012;2023-04-25T14:26:36;8.25;;;2.20;;
53056;SDS011;38940;50.096;4.012;2023-04-25T14:29:05;8.32;;;2.70;;
53056;SDS011;38940;50.096;4.012;2023-04-25T14:31:32;6.63;;;2.40;;
53056;SDS011;38940;50.096;4.012;2023-04-25T14:34:01;6.95;;;2.20;;
53056;SDS011;38940;50.096;4.012;2023-04-25T14:36:28;8.57;;;2.42;;
53056;SDS011;38940;50.096;4.012;2023-04-25T14:38:57;8.13;;;2.20;;
53056;SDS011;38940;50.096;4.012;2023-04-25T14:41:26;9.82;;;2.33;;
53056;SDS011;38940;50.096;4.012;2023-04-25T14:43:52;8.33;;;2.20;;
53056;SDS011;38940;50.096;4.012;2023-04-25T14:46:19;6.53;;;1.83;;
53056;SDS011;38940;50.096;4.012;2023-04-25T14:48:47;6.10;;;2.17;;